sensor_id;sensor_type;location;lat;lon;timestamp;temperature;humidity
16643;DHT22;8435;52.184;5.406;2022-11-27T00:02:17;9.20;99.90
16643;DHT22;8435;52.184;5.406;2022-11-27T00:04:44;9.20;99.90
16643;DHT22;8435;52.184;5.406;2022-11-27T00:07:11;9.20;99.90
16643;DHT22;8435;52.184;5.406;2022-11-27T00:09:38;9.20;99.90
16643;DHT22;8435;52.184;5.406;2022-11-27T00:12:05;9.20;99.90
16643;DHT22;8435;52.184;5.406;2022-11-27T00:14:33;9.20;99.90
16643;DHT22;8435;52.184;5.406;2022-11-27T00:17:00;9.20;99.90
16643;DHT22;8435;52.184;5.406;2022-11-27T00:19:26;9.20;99.90
16643;DHT22;8435;52.184;5.406;2022-11-27T00:21:53;9.20;99.90
16643;DHT22;8435;52.184;5.406;2022-11-27T00:24:20;9.20;99.90
16643;DHT22;8435;52.184;5.406;2022-11-27T00:26:47;9.20;99.90
16643;DHT22;8435;52.184;5.406;2022-11-27T00:29:14;9.20;99.90
16643;DHT22;8435;52.184;5.406;2022-11-27T00:31:42;9.20;99.90
16643;DHT22;8435;52.184;5.406;2022-11-27T00:34:09;9.20;99.90
16643;DHT22;8435;52.184;5.406;2022-11-27T00:36:37;9.20;99.90
16643;DHT22;8435;52.184;5.406;2022-11-27T00:39:04;9.20;99.90
16643;DHT22;8435;52.184;5.406;2022-11-27T00:41:31;9.20;99.90
16643;DHT22;8435;52.184;5.406;2022-11-27T00:43:58;9.20;99.90
16643;DHT22;8435;52.184;5.406;2022-11-27T00:46:27;9.20;99.90
16643;DHT22;8435;52.184;5.406;2022-11-27T00:48:55;9.20;99.90
16643;DHT22;8435;52.184;5.406;2022-11-27T00:51:23;9.20;99.90
16643;DHT22;8435;52.184;5.406;2022-11-27T00:53:50;9.10;99.90
16643;DHT22;8435;52.184;5.406;2022-11-27T00:56:19;9.10;99.90
16643;DHT22;8435;52.184;5.406;2022-11-27T00:58:46;9.10;99.90
16643;DHT22;8435;52.184;5.406;2022-11-27T01:01:15;9.10;99.90
16643;DHT22;8435;52.184;5.406;2022-11-27T01:03:43;9.10;99.90
16643;DHT22;8435;52.184;5.406;2022-11-27T01:06:12;9.10;99.90
16643;DHT22;8435;52.184;5.406;2022-11-27T01:08:40;9.10;99.90
16643;DHT22;8435;52.184;5.406;2022-11-27T01:11:11;9.10;99.90
16643;DHT22;8435;52.184;5.406;2022-11-27T01:13:38;9.00;99.90
16643;DHT22;8435;52.184;5.406;2022-11-27T01:16:09;9.00;99.90
16643;DHT22;8435;52.184;5.406;2022-11-27T01:18:39;9.00;99.90
16643;DHT22;8435;52.184;5.406;2022-11-27T01:21:06;9.00;99.90
16643;DHT22;8435;52.184;5.406;2022-11-27T01:23:34;9.00;99.90
16643;DHT22;8435;52.184;5.406;2022-11-27T01:26:02;9.00;99.90
16643;DHT22;8435;52.184;5.406;2022-11-27T01:28:30;8.90;99.90
16643;DHT22;8435;52.184;5.406;2022-11-27T01:30:57;8.90;99.90
16643;DHT22;8435;52.184;5.406;2022-11-27T01:33:24;8.90;99.90
16643;DHT22;8435;52.184;5.406;2022-11-27T01:35:54;8.90;99.90
16643;DHT22;8435;52.184;5.406;2022-11-27T01:38:22;8.90;99.90
16643;DHT22;8435;52.184;5.406;2022-11-27T01:40:55;8.90;99.90
16643;DHT22;8435;52.184;5.406;2022-11-27T01:43:36;8.90;99.90
16643;DHT22;8435;52.184;5.406;2022-11-27T01:46:04;8.80;99.90
16643;DHT22;8435;52.184;5.406;2022-11-27T01:48:31;8.80;99.90
16643;DHT22;8435;52.184;5.406;2022-11-27T01:50:58;8.80;99.90
16643;DHT22;8435;52.184;5.406;2022-11-27T01:53:25;8.80;99.90
16643;DHT22;8435;52.184;5.406;2022-11-27T01:55:56;8.80;99.90
16643;DHT22;8435;52.184;5.406;2022-11-27T01:58:26;8.90;99.90
16643;DHT22;8435;52.184;5.406;2022-11-27T02:00:54;8.90;99.90
16643;DHT22;8435;52.184;5.406;2022-11-27T02:03:21;8.80;99.90
16643;DHT22;8435;52.184;5.406;2022-11-27T02:05:48;8.80;99.90
16643;DHT22;8435;52.184;5.406;2022-11-27T02:08:16;8.80;99.90
16643;DHT22;8435;52.184;5.406;2022-11-27T02:10:49;8.80;99.90
16643;DHT22;8435;52.184;5.406;2022-11-27T02:13:24;8.80;99.90
16643;DHT22;8435;52.184;5.406;2022-11-27T02:15:59;8.80;99.90
16643;DHT22;8435;52.184;5.406;2022-11-27T02:18:32;8.80;99.90
16643;DHT22;8435;52.184;5.406;2022-11-27T02:21:07;8.80;99.90
16643;DHT22;8435;52.184;5.406;2022-11-27T02:29:33;8.80;99.90
16643;DHT22;8435;52.184;5.406;2022-11-27T02:32:05;8.80;99.90
16643;DHT22;8435;52.184;5.406;2022-11-27T02:34:37;8.80;99.90
16643;DHT22;8435;52.184;5.406;2022-11-27T02:37:10;8.80;99.90
16643;DHT22;8435;52.184;5.406;2022-11-27T02:39:43;8.80;99.90
16643;DHT22;8435;52.184;5.406;2022-11-27T02:42:15;8.80;99.90
16643;DHT22;8435;52.184;5.406;2022-11-27T02:44:47;8.80;99.90
16643;DHT22;8435;52.184;5.406;2022-11-27T02:47:15;8.80;99.90
16643;DHT22;8435;52.184;5.406;2022-11-27T02:49:43;8.80;99.90
16643;DHT22;8435;52.184;5.406;2022-11-27T02:52:11;8.80;99.90
16643;DHT22;8435;52.184;5.406;2022-11-27T02:54:41;8.80;99.90
16643;DHT22;8435;52.184;5.406;2022-11-27T02:57:09;8.90;99.90
16643;DHT22;8435;52.184;5.406;2022-11-27T02:59:38;8.90;99.90
16643;DHT22;8435;52.184;5.406;2022-11-27T03:02:10;8.90;99.90
16643;DHT22;8435;52.184;5.406;2022-11-27T03:04:43;8.90;99.90
16643;DHT22;8435;52.184;5.406;2022-11-27T03:07:15;8.90;99.90
16643;DHT22;8435;52.184;5.406;2022-11-27T03:09:46;8.90;99.90
16643;DHT22;8435;52.184;5.406;2022-11-27T03:12:15;8.90;99.90
16643;DHT22;8435;52.184;5.406;2022-11-27T03:14:44;8.90;99.90
16643;DHT22;8435;52.184;5.406;2022-11-27T03:17:22;8.90;99.90
16643;DHT22;8435;52.184;5.406;2022-11-27T03:19:55;8.90;99.90
16643;DHT22;8435;52.184;5.406;2022-11-27T03:22:23;8.90;99.90
16643;DHT22;8435;52.184;5.406;2022-11-27T03:24:52;8.90;99.90
16643;DHT22;8435;52.184;5.406;2022-11-27T03:27:22;8.90;99.90
16643;DHT22;8435;52.184;5.406;2022-11-27T03:29:54;8.90;99.90
16643;DHT22;8435;52.184;5.406;2022-11-27T03:32:25;9.00;99.90
16643;DHT22;8435;52.184;5.406;2022-11-27T03:34:52;9.00;99.90
16643;DHT22;8435;52.184;5.406;2022-11-27T03:37:19;9.00;99.90
16643;DHT22;8435;52.184;5.406;2022-11-27T03:39:47;9.00;99.90
16643;DHT22;8435;52.184;5.406;2022-11-27T03:42:20;9.00;99.90
16643;DHT22;8435;52.184;5.406;2022-11-27T03:44:52;8.90;99.90
16643;DHT22;8435;52.184;5.406;2022-11-27T03:47:34;9.00;99.90
16643;DHT22;8435;52.184;5.406;2022-11-27T03:50:16;9.00;99.90
16643;DHT22;8435;52.184;5.406;2022-11-27T03:52:50;9.00;99.90
16643;DHT22;8435;52.184;5.406;2022-11-27T03:55:24;8.90;99.90
16643;DHT22;8435;52.184;5.406;2022-11-27T03:57:59;9.00;99.90
16643;DHT22;8435;52.184;5.406;2022-11-27T04:00:30;8.90;99.90
16643;DHT22;8435;52.184;5.406;2022-11-27T04:03:02;8.90;99.90
16643;DHT22;8435;52.184;5.406;2022-11-27T04:05:28;8.90;99.90
16643;DHT22;8435;52.184;5.406;2022-11-27T04:07:55;9.00;99.90
16643;DHT22;8435;52.184;5.406;2022-11-27T04:10:22;8.90;99.90
16643;DHT22;8435;52.184;5.406;2022-11-27T04:12:49;8.90;99.90
16643;DHT22;8435;52.184;5.406;2022-11-27T04:15:16;8.90;99.90
16643;DHT22;8435;52.184;5.406;2022-11-27T04:17:42;8.90;99.90
16643;DHT22;8435;52.184;5.406;2022-11-27T04:20:12;8.90;99.90
16643;DHT22;8435;52.184;5.406;2022-11-27T04:22:39;8.90;99.90
16643;DHT22;8435;52.184;5.406;2022-11-27T04:25:14;8.90;99.90
16643;DHT22;8435;52.184;5.406;2022-11-27T04:27:42;8.90;99.90
16643;DHT22;8435;52.184;5.406;2022-11-27T04:30:10;8.80;99.90
16643;DHT22;8435;52.184;5.406;2022-11-27T04:32:40;8.90;99.90
16643;DHT22;8435;52.184;5.406;2022-11-27T04:35:13;8.90;99.90
16643;DHT22;8435;52.184;5.406;2022-11-27T04:37:40;8.80;99.90
16643;DHT22;8435;52.184;5.406;2022-11-27T04:40:07;8.80;99.90
16643;DHT22;8435;52.184;5.406;2022-11-27T04:42:34;8.80;99.90
16643;DHT22;8435;52.184;5.406;2022-11-27T04:45:01;8.80;99.90
16643;DHT22;8435;52.184;5.406;2022-11-27T04:47:28;8.80;99.90
16643;DHT22;8435;52.184;5.406;2022-11-27T04:49:55;8.80;99.90
16643;DHT22;8435;52.184;5.406;2022-11-27T04:52:23;8.80;99.90
16643;DHT22;8435;52.184;5.406;2022-11-27T04:54:49;8.80;99.90
16643;DHT22;8435;52.184;5.406;2022-11-27T04:57:16;8.80;99.90
16643;DHT22;8435;52.184;5.406;2022-11-27T04:59:44;8.80;99.90
16643;DHT22;8435;52.184;5.406;2022-11-27T05:02:11;8.80;99.90
16643;DHT22;8435;52.184;5.406;2022-11-27T05:04:38;8.80;99.90
16643;DHT22;8435;52.184;5.406;2022-11-27T05:07:05;8.80;99.90
16643;DHT22;8435;52.184;5.406;2022-11-27T05:09:33;8.80;99.90
16643;DHT22;8435;52.184;5.406;2022-11-27T05:12:02;8.80;99.90
16643;DHT22;8435;52.184;5.406;2022-11-27T05:14:29;8.80;99.90
16643;DHT22;8435;52.184;5.406;2022-11-27T05:16:57;8.80;99.90
16643;DHT22;8435;52.184;5.406;2022-11-27T05:19:26;8.80;99.90
16643;DHT22;8435;52.184;5.406;2022-11-27T05:21:53;8.80;99.90
16643;DHT22;8435;52.184;5.406;2022-11-27T05:24:21;8.80;99.90
16643;DHT22;8435;52.184;5.406;2022-11-27T05:26:51;8.80;99.90
16643;DHT22;8435;52.184;5.406;2022-11-27T05:29:18;8.80;99.90
16643;DHT22;8435;52.184;5.406;2022-11-27T05:31:47;8.80;99.90
16643;DHT22;8435;52.184;5.406;2022-11-27T05:34:14;8.80;99.90
16643;DHT22;8435;52.184;5.406;2022-11-27T05:36:41;8.80;99.90
16643;DHT22;8435;52.184;5.406;2022-11-27T05:39:09;8.80;99.90
16643;DHT22;8435;52.184;5.406;2022-11-27T05:41:37;8.80;99.90
16643;DHT22;8435;52.184;5.406;2022-11-27T05:44:06;8.80;99.90
16643;DHT22;8435;52.184;5.406;2022-11-27T05:46:32;8.80;99.90
16643;DHT22;8435;52.184;5.406;2022-11-27T05:48:59;8.80;99.90
16643;DHT22;8435;52.184;5.406;2022-11-27T05:51:26;8.90;99.90
16643;DHT22;8435;52.184;5.406;2022-11-27T05:53:53;8.90;99.90
16643;DHT22;8435;52.184;5.406;2022-11-27T05:56:20;8.80;99.90
16643;DHT22;8435;52.184;5.406;2022-11-27T05:58:47;8.80;99.90
16643;DHT22;8435;52.184;5.406;2022-11-27T06:01:17;8.80;99.90
16643;DHT22;8435;52.184;5.406;2022-11-27T06:03:44;8.90;99.90
16643;DHT22;8435;52.184;5.406;2022-11-27T06:06:13;8.90;99.90
16643;DHT22;8435;52.184;5.406;2022-11-27T06:08:42;8.90;99.90
16643;DHT22;8435;52.184;5.406;2022-11-27T06:11:11;8.90;99.90
16643;DHT22;8435;52.184;5.406;2022-11-27T06:13:40;8.90;99.90
16643;DHT22;8435;52.184;5.406;2022-11-27T06:16:14;8.90;99.90
16643;DHT22;8435;52.184;5.406;2022-11-27T06:18:43;8.90;99.90
16643;DHT22;8435;52.184;5.406;2022-11-27T06:21:12;8.90;99.90
16643;DHT22;8435;52.184;5.406;2022-11-27T06:23:39;8.90;99.90
16643;DHT22;8435;52.184;5.406;2022-11-27T06:26:11;8.90;99.90
16643;DHT22;8435;52.184;5.406;2022-11-27T06:28:37;8.90;99.90
16643;DHT22;8435;52.184;5.406;2022-11-27T06:31:06;8.90;99.90
16643;DHT22;8435;52.184;5.406;2022-11-27T06:33:34;8.90;99.90
16643;DHT22;8435;52.184;5.406;2022-11-27T06:36:03;8.90;99.90
16643;DHT22;8435;52.184;5.406;2022-11-27T06:38:30;8.90;99.90
16643;DHT22;8435;52.184;5.406;2022-11-27T06:41:07;8.80;99.90
16643;DHT22;8435;52.184;5.406;2022-11-27T06:43:34;8.90;99.90
16643;DHT22;8435;52.184;5.406;2022-11-27T06:46:02;8.90;99.90
16643;DHT22;8435;52.184;5.406;2022-11-27T06:48:30;8.80;99.90
16643;DHT22;8435;52.184;5.406;2022-11-27T06:50:58;8.90;99.90
16643;DHT22;8435;52.184;5.406;2022-11-27T06:53:27;8.90;99.90
16643;DHT22;8435;52.184;5.406;2022-11-27T06:55:55;8.90;99.90
16643;DHT22;8435;52.184;5.406;2022-11-27T06:58:22;8.90;99.90
16643;DHT22;8435;52.184;5.406;2022-11-27T07:00:49;8.90;99.90
16643;DHT22;8435;52.184;5.406;2022-11-27T07:03:16;8.90;99.90
16643;DHT22;8435;52.184;5.406;2022-11-27T07:05:42;8.90;99.90
16643;DHT22;8435;52.184;5.406;2022-11-27T07:08:09;8.80;99.90
16643;DHT22;8435;52.184;5.406;2022-11-27T07:10:37;8.80;99.90
16643;DHT22;8435;52.184;5.406;2022-11-27T07:13:04;8.90;99.90
16643;DHT22;8435;52.184;5.406;2022-11-27T07:15:32;8.90;99.90
16643;DHT22;8435;52.184;5.406;2022-11-27T07:17:59;8.90;99.90
16643;DHT22;8435;52.184;5.406;2022-11-27T07:20:25;8.90;99.90
16643;DHT22;8435;52.184;5.406;2022-11-27T07:22:52;8.90;99.90
16643;DHT22;8435;52.184;5.406;2022-11-27T07:25:19;8.90;99.90
16643;DHT22;8435;52.184;5.406;2022-11-27T07:27:47;8.90;99.90
16643;DHT22;8435;52.184;5.406;2022-11-27T07:30:14;8.80;99.90
16643;DHT22;8435;52.184;5.406;2022-11-27T07:32:41;8.90;99.90
16643;DHT22;8435;52.184;5.406;2022-11-27T07:35:08;8.80;99.90
16643;DHT22;8435;52.184;5.406;2022-11-27T07:37:35;8.80;99.90
16643;DHT22;8435;52.184;5.406;2022-11-27T07:40:02;8.90;99.90
16643;DHT22;8435;52.184;5.406;2022-11-27T07:42:29;8.80;99.90
16643;DHT22;8435;52.184;5.406;2022-11-27T07:44:57;8.80;99.90
16643;DHT22;8435;52.184;5.406;2022-11-27T07:47:24;8.80;99.90
16643;DHT22;8435;52.184;5.406;2022-11-27T07:49:51;8.90;99.90
16643;DHT22;8435;52.184;5.406;2022-11-27T07:52:19;8.80;99.90
16643;DHT22;8435;52.184;5.406;2022-11-27T07:54:47;8.80;99.90
16643;DHT22;8435;52.184;5.406;2022-11-27T07:57:13;8.80;99.90
16643;DHT22;8435;52.184;5.406;2022-11-27T07:59:40;8.80;99.90
16643;DHT22;8435;52.184;5.406;2022-11-27T08:02:11;8.80;99.90
16643;DHT22;8435;52.184;5.406;2022-11-27T08:04:39;8.80;99.90
16643;DHT22;8435;52.184;5.406;2022-11-27T08:07:06;8.80;99.90
16643;DHT22;8435;52.184;5.406;2022-11-27T08:09:33;8.80;99.90
16643;DHT22;8435;52.184;5.406;2022-11-27T08:12:00;8.80;99.90
16643;DHT22;8435;52.184;5.406;2022-11-27T08:14:26;8.80;99.90
16643;DHT22;8435;52.184;5.406;2022-11-27T08:16:53;8.80;99.90
16643;DHT22;8435;52.184;5.406;2022-11-27T08:19:22;8.80;99.90
16643;DHT22;8435;52.184;5.406;2022-11-27T08:21:49;8.80;99.90
16643;DHT22;8435;52.184;5.406;2022-11-27T08:24:16;8.90;99.90
16643;DHT22;8435;52.184;5.406;2022-11-27T08:26:43;8.80;99.90
16643;DHT22;8435;52.184;5.406;2022-11-27T08:29:10;8.80;99.90
16643;DHT22;8435;52.184;5.406;2022-11-27T08:31:37;8.80;99.90
16643;DHT22;8435;52.184;5.406;2022-11-27T08:34:04;8.80;99.90
16643;DHT22;8435;52.184;5.406;2022-11-27T08:36:32;8.80;99.90
16643;DHT22;8435;52.184;5.406;2022-11-27T08:38:59;8.90;99.90
16643;DHT22;8435;52.184;5.406;2022-11-27T08:41:26;8.90;99.90
16643;DHT22;8435;52.184;5.406;2022-11-27T08:43:53;8.90;99.90
16643;DHT22;8435;52.184;5.406;2022-11-27T08:46:23;8.90;99.90
16643;DHT22;8435;52.184;5.406;2022-11-27T08:48:49;8.90;99.90
16643;DHT22;8435;52.184;5.406;2022-11-27T08:51:18;8.90;99.90
16643;DHT22;8435;52.184;5.406;2022-11-27T08:53:46;8.90;99.90
16643;DHT22;8435;52.184;5.406;2022-11-27T08:56:15;8.90;99.90
16643;DHT22;8435;52.184;5.406;2022-11-27T08:58:48;8.90;99.90
16643;DHT22;8435;52.184;5.406;2022-11-27T09:01:18;9.00;99.90
16643;DHT22;8435;52.184;5.406;2022-11-27T09:03:45;9.00;99.90
16643;DHT22;8435;52.184;5.406;2022-11-27T09:06:14;9.00;99.90
16643;DHT22;8435;52.184;5.406;2022-11-27T09:08:42;9.00;99.90
16643;DHT22;8435;52.184;5.406;2022-11-27T09:11:11;9.00;99.90
16643;DHT22;8435;52.184;5.406;2022-11-27T09:13:39;9.00;99.90
16643;DHT22;8435;52.184;5.406;2022-11-27T09:16:08;9.00;99.90
16643;DHT22;8435;52.184;5.406;2022-11-27T09:18:35;9.10;99.90
16643;DHT22;8435;52.184;5.406;2022-11-27T09:21:04;9.10;99.90
16643;DHT22;8435;52.184;5.406;2022-11-27T09:23:32;9.10;99.90
16643;DHT22;8435;52.184;5.406;2022-11-27T09:25:59;9.10;99.90
16643;DHT22;8435;52.184;5.406;2022-11-27T09:28:27;9.10;99.90
16643;DHT22;8435;52.184;5.406;2022-11-27T09:30:55;9.10;99.90
16643;DHT22;8435;52.184;5.406;2022-11-27T09:33:23;9.10;99.90
16643;DHT22;8435;52.184;5.406;2022-11-27T09:35:50;9.10;99.90
16643;DHT22;8435;52.184;5.406;2022-11-27T09:38:17;9.10;99.90
16643;DHT22;8435;52.184;5.406;2022-11-27T09:40:47;9.20;99.90
16643;DHT22;8435;52.184;5.406;2022-11-27T09:43:15;9.20;99.90
16643;DHT22;8435;52.184;5.406;2022-11-27T09:45:48;9.20;99.90
16643;DHT22;8435;52.184;5.406;2022-11-27T09:48:18;9.20;99.90
16643;DHT22;8435;52.184;5.406;2022-11-27T09:50:47;9.20;99.90
16643;DHT22;8435;52.184;5.406;2022-11-27T09:53:23;9.20;99.90
16643;DHT22;8435;52.184;5.406;2022-11-27T09:55:55;9.30;99.90
16643;DHT22;8435;52.184;5.406;2022-11-27T09:58:34;9.20;99.90
16643;DHT22;8435;52.184;5.406;2022-11-27T10:01:09;9.30;99.90
16643;DHT22;8435;52.184;5.406;2022-11-27T10:03:37;9.30;99.90
16643;DHT22;8435;52.184;5.406;2022-11-27T10:06:19;9.30;99.90
16643;DHT22;8435;52.184;5.406;2022-11-27T10:09:01;9.40;99.90
16643;DHT22;8435;52.184;5.406;2022-11-27T10:11:31;9.40;99.90
16643;DHT22;8435;52.184;5.406;2022-11-27T10:14:09;9.40;99.90
16643;DHT22;8435;52.184;5.406;2022-11-27T10:16:46;9.40;99.90
16643;DHT22;8435;52.184;5.406;2022-11-27T10:19:23;9.50;99.90
16643;DHT22;8435;52.184;5.406;2022-11-27T10:21:57;9.50;99.90
16643;DHT22;8435;52.184;5.406;2022-11-27T10:24:30;9.50;99.90
16643;DHT22;8435;52.184;5.406;2022-11-27T10:27:07;9.50;99.90
16643;DHT22;8435;52.184;5.406;2022-11-27T10:29:40;9.60;99.90
16643;DHT22;8435;52.184;5.406;2022-11-27T10:32:14;9.60;99.90
16643;DHT22;8435;52.184;5.406;2022-11-27T10:34:47;9.60;99.90
16643;DHT22;8435;52.184;5.406;2022-11-27T10:37:19;9.60;99.90
16643;DHT22;8435;52.184;5.406;2022-11-27T10:39:51;9.60;99.90
16643;DHT22;8435;52.184;5.406;2022-11-27T10:42:23;9.70;99.90
16643;DHT22;8435;52.184;5.406;2022-11-27T10:44:58;9.70;99.90
16643;DHT22;8435;52.184;5.406;2022-11-27T10:47:32;9.70;99.90
16643;DHT22;8435;52.184;5.406;2022-11-27T10:50:05;9.80;99.90
16643;DHT22;8435;52.184;5.406;2022-11-27T10:52:32;9.80;99.90
16643;DHT22;8435;52.184;5.406;2022-11-27T10:55:02;9.80;99.90
16643;DHT22;8435;52.184;5.406;2022-11-27T10:57:54;9.80;99.90
16643;DHT22;8435;52.184;5.406;2022-11-27T11:00:24;9.90;99.90
16643;DHT22;8435;52.184;5.406;2022-11-27T11:03:00;9.90;99.90
16643;DHT22;8435;52.184;5.406;2022-11-27T11:05:28;9.90;99.90
16643;DHT22;8435;52.184;5.406;2022-11-27T11:08:00;10.00;99.90
16643;DHT22;8435;52.184;5.406;2022-11-27T11:10:31;9.90;99.90
16643;DHT22;8435;52.184;5.406;2022-11-27T11:13:16;10.00;99.90
16643;DHT22;8435;52.184;5.406;2022-11-27T11:15:52;10.00;99.90
16643;DHT22;8435;52.184;5.406;2022-11-27T11:18:23;10.00;99.90
16643;DHT22;8435;52.184;5.406;2022-11-27T11:20:52;10.00;99.90
16643;DHT22;8435;52.184;5.406;2022-11-27T11:23:26;10.00;99.90
16643;DHT22;8435;52.184;5.406;2022-11-27T11:25:56;10.00;99.90
16643;DHT22;8435;52.184;5.406;2022-11-27T11:28:24;10.10;99.90
16643;DHT22;8435;52.184;5.406;2022-11-27T11:30:54;10.10;99.90
16643;DHT22;8435;52.184;5.406;2022-11-27T11:33:23;10.10;99.90
16643;DHT22;8435;52.184;5.406;2022-11-27T11:35:52;10.20;99.90
16643;DHT22;8435;52.184;5.406;2022-11-27T11:38:27;10.20;99.90
16643;DHT22;8435;52.184;5.406;2022-11-27T11:41:01;10.20;99.90
16643;DHT22;8435;52.184;5.406;2022-11-27T11:43:29;10.30;99.90
16643;DHT22;8435;52.184;5.406;2022-11-27T11:46:04;10.30;99.90
16643;DHT22;8435;52.184;5.406;2022-11-27T11:48:34;10.30;99.90
16643;DHT22;8435;52.184;5.406;2022-11-27T11:51:07;10.40;99.90
16643;DHT22;8435;52.184;5.406;2022-11-27T11:53:37;10.40;99.90
16643;DHT22;8435;52.184;5.406;2022-11-27T11:56:18;10.40;99.90
16643;DHT22;8435;52.184;5.406;2022-11-27T11:58:56;10.50;99.90
16643;DHT22;8435;52.184;5.406;2022-11-27T12:01:38;10.50;99.90
16643;DHT22;8435;52.184;5.406;2022-11-27T12:04:22;10.50;99.90
16643;DHT22;8435;52.184;5.406;2022-11-27T12:07:01;10.60;99.90
16643;DHT22;8435;52.184;5.406;2022-11-27T12:09:42;10.60;99.90
16643;DHT22;8435;52.184;5.406;2022-11-27T12:12:22;10.60;99.90
16643;DHT22;8435;52.184;5.406;2022-11-27T12:14:56;10.60;99.90
16643;DHT22;8435;52.184;5.406;2022-11-27T12:17:38;10.60;99.90
16643;DHT22;8435;52.184;5.406;2022-11-27T12:20:21;10.60;99.90
16643;DHT22;8435;52.184;5.406;2022-11-27T12:25:55;10.60;99.90
16643;DHT22;8435;52.184;5.406;2022-11-27T12:31:51;10.70;99.90
16643;DHT22;8435;52.184;5.406;2022-11-27T12:34:31;10.70;99.90
16643;DHT22;8435;52.184;5.406;2022-11-27T12:37:17;10.70;99.90
16643;DHT22;8435;52.184;5.406;2022-11-27T12:40:00;10.70;99.90
16643;DHT22;8435;52.184;5.406;2022-11-27T12:42:33;10.70;99.90
16643;DHT22;8435;52.184;5.406;2022-11-27T12:45:11;10.70;99.90
16643;DHT22;8435;52.184;5.406;2022-11-27T12:47:43;10.80;99.90
16643;DHT22;8435;52.184;5.406;2022-11-27T12:50:16;10.80;99.90
16643;DHT22;8435;52.184;5.406;2022-11-27T12:52:52;10.80;99.90
16643;DHT22;8435;52.184;5.406;2022-11-27T12:55:28;10.80;99.90
16643;DHT22;8435;52.184;5.406;2022-11-27T12:58:00;10.80;99.90
16643;DHT22;8435;52.184;5.406;2022-11-27T13:00:30;10.80;99.90
16643;DHT22;8435;52.184;5.406;2022-11-27T13:03:03;10.80;99.90
16643;DHT22;8435;52.184;5.406;2022-11-27T13:05:37;10.80;99.90
16643;DHT22;8435;52.184;5.406;2022-11-27T13:08:13;10.80;99.90
16643;DHT22;8435;52.184;5.406;2022-11-27T13:10:46;10.80;99.90
16643;DHT22;8435;52.184;5.406;2022-11-27T13:13:18;10.80;99.90
16643;DHT22;8435;52.184;5.406;2022-11-27T13:15:51;10.80;99.90
16643;DHT22;8435;52.184;5.406;2022-11-27T13:18:25;10.80;99.90
16643;DHT22;8435;52.184;5.406;2022-11-27T13:20:57;10.80;99.90
16643;DHT22;8435;52.184;5.406;2022-11-27T13:23:29;10.80;99.90
16643;DHT22;8435;52.184;5.406;2022-11-27T13:25:57;10.80;99.90
16643;DHT22;8435;52.184;5.406;2022-11-27T13:28:39;10.80;99.90
16643;DHT22;8435;52.184;5.406;2022-11-27T13:31:13;10.80;99.90
16643;DHT22;8435;52.184;5.406;2022-11-27T13:33:42;10.80;99.90
16643;DHT22;8435;52.184;5.406;2022-11-27T13:36:19;10.70;99.90
16643;DHT22;8435;52.184;5.406;2022-11-27T13:38:54;10.70;99.90
16643;DHT22;8435;52.184;5.406;2022-11-27T13:41:24;10.70;99.90
16643;DHT22;8435;52.184;5.406;2022-11-27T13:43:55;10.70;99.90
16643;DHT22;8435;52.184;5.406;2022-11-27T13:46:25;10.70;99.90
16643;DHT22;8435;52.184;5.406;2022-11-27T13:48:54;10.70;99.90
16643;DHT22;8435;52.184;5.406;2022-11-27T13:51:27;10.70;99.90
16643;DHT22;8435;52.184;5.406;2022-11-27T13:54:08;10.70;99.90
16643;DHT22;8435;52.184;5.406;2022-11-27T13:56:35;10.60;99.90
16643;DHT22;8435;52.184;5.406;2022-11-27T13:59:12;10.60;99.90
16643;DHT22;8435;52.184;5.406;2022-11-27T14:01:39;10.60;99.90
16643;DHT22;8435;52.184;5.406;2022-11-27T14:04:20;10.60;99.90
16643;DHT22;8435;52.184;5.406;2022-11-27T14:06:51;10.60;99.90
16643;DHT22;8435;52.184;5.406;2022-11-27T14:09:31;10.50;99.90
16643;DHT22;8435;52.184;5.406;2022-11-27T14:11:58;10.50;99.90
16643;DHT22;8435;52.184;5.406;2022-11-27T14:14:27;10.50;99.90
16643;DHT22;8435;52.184;5.406;2022-11-27T14:16:56;10.50;99.90
16643;DHT22;8435;52.184;5.406;2022-11-27T14:19:26;10.50;99.90
16643;DHT22;8435;52.184;5.406;2022-11-27T14:21:54;10.40;99.90
16643;DHT22;8435;52.184;5.406;2022-11-27T14:24:33;10.40;99.90
16643;DHT22;8435;52.184;5.406;2022-11-27T14:27:06;10.40;99.90
16643;DHT22;8435;52.184;5.406;2022-11-27T14:29:40;10.40;99.90
16643;DHT22;8435;52.184;5.406;2022-11-27T14:32:10;10.40;99.90
16643;DHT22;8435;52.184;5.406;2022-11-27T14:34:37;10.40;99.90
16643;DHT22;8435;52.184;5.406;2022-11-27T14:37:04;10.40;99.90
16643;DHT22;8435;52.184;5.406;2022-11-27T14:39:34;10.30;99.90
16643;DHT22;8435;52.184;5.406;2022-11-27T14:42:04;10.40;99.90
16643;DHT22;8435;52.184;5.406;2022-11-27T14:44:31;10.30;99.90
16643;DHT22;8435;52.184;5.406;2022-11-27T14:47:00;10.30;99.90
16643;DHT22;8435;52.184;5.406;2022-11-27T14:49:29;10.30;99.90
16643;DHT22;8435;52.184;5.406;2022-11-27T14:52:01;10.30;99.90
16643;DHT22;8435;52.184;5.406;2022-11-27T14:54:31;10.30;99.90
16643;DHT22;8435;52.184;5.406;2022-11-27T14:57:01;10.30;99.90
16643;DHT22;8435;52.184;5.406;2022-11-27T14:59:29;10.30;99.90
16643;DHT22;8435;52.184;5.406;2022-11-27T15:01:59;10.30;99.90
16643;DHT22;8435;52.184;5.406;2022-11-27T15:04:33;10.30;99.90
16643;DHT22;8435;52.184;5.406;2022-11-27T15:07:03;10.30;99.90
16643;DHT22;8435;52.184;5.406;2022-11-27T15:09:31;10.30;99.90
16643;DHT22;8435;52.184;5.406;2022-11-27T15:12:07;10.20;99.90
16643;DHT22;8435;52.184;5.406;2022-11-27T15:14:44;10.20;99.90
16643;DHT22;8435;52.184;5.406;2022-11-27T15:17:15;10.20;99.90
16643;DHT22;8435;52.184;5.406;2022-11-27T15:19:42;10.20;99.90
16643;DHT22;8435;52.184;5.406;2022-11-27T15:22:15;10.20;99.90
16643;DHT22;8435;52.184;5.406;2022-11-27T15:24:42;10.20;99.90
16643;DHT22;8435;52.184;5.406;2022-11-27T15:27:29;10.20;99.90
16643;DHT22;8435;52.184;5.406;2022-11-27T15:30:01;10.20;99.90
16643;DHT22;8435;52.184;5.406;2022-11-27T15:32:42;10.20;99.90
16643;DHT22;8435;52.184;5.406;2022-11-27T15:35:21;10.20;99.90
16643;DHT22;8435;52.184;5.406;2022-11-27T15:37:51;10.20;99.90
16643;DHT22;8435;52.184;5.406;2022-11-27T15:40:28;10.20;99.90
16643;DHT22;8435;52.184;5.406;2022-11-27T15:42:58;10.20;99.90
16643;DHT22;8435;52.184;5.406;2022-11-27T15:45:29;10.20;99.90
16643;DHT22;8435;52.184;5.406;2022-11-27T15:47:57;10.20;99.90
16643;DHT22;8435;52.184;5.406;2022-11-27T15:50:26;10.20;99.90
16643;DHT22;8435;52.184;5.406;2022-11-27T15:52:52;10.20;99.90
16643;DHT22;8435;52.184;5.406;2022-11-27T15:55:19;10.20;99.90
16643;DHT22;8435;52.184;5.406;2022-11-27T15:57:47;10.20;99.90
16643;DHT22;8435;52.184;5.406;2022-11-27T16:00:16;10.20;99.90
16643;DHT22;8435;52.184;5.406;2022-11-27T16:02:45;10.20;99.90
16643;DHT22;8435;52.184;5.406;2022-11-27T16:05:11;10.20;99.90
16643;DHT22;8435;52.184;5.406;2022-11-27T16:07:38;10.20;99.90
16643;DHT22;8435;52.184;5.406;2022-11-27T16:10:09;10.20;99.90
16643;DHT22;8435;52.184;5.406;2022-11-27T16:12:36;10.20;99.90
16643;DHT22;8435;52.184;5.406;2022-11-27T16:15:05;10.20;99.90
16643;DHT22;8435;52.184;5.406;2022-11-27T16:17:33;10.20;99.90
16643;DHT22;8435;52.184;5.406;2022-11-27T16:20:03;10.30;99.90
16643;DHT22;8435;52.184;5.406;2022-11-27T16:22:30;10.20;99.90
16643;DHT22;8435;52.184;5.406;2022-11-27T16:24:57;10.30;99.90
16643;DHT22;8435;52.184;5.406;2022-11-27T16:27:24;10.30;99.90
16643;DHT22;8435;52.184;5.406;2022-11-27T16:29:53;10.30;99.90